createdAt,value
2019-02-20T00:01:01.532Z,99.90
2019-02-20T00:03:37.448Z,99.90
2019-02-20T00:06:07.543Z,99.90
2019-02-20T00:08:38.637Z,99.90
2019-02-20T00:11:08.736Z,99.90
2019-02-20T00:13:38.824Z,99.90
2019-02-20T00:16:09.852Z,99.90
2019-02-20T00:18:39.945Z,99.90
2019-02-20T00:21:11.924Z,99.90
2019-02-20T00:23:43.055Z,99.90
2019-02-20T00:26:13.168Z,99.90
2019-02-20T00:28:44.256Z,99.90
2019-02-20T00:31:14.385Z,99.90
2019-02-20T00:33:44.492Z,99.90
2019-02-20T00:36:17.668Z,99.90
2019-02-20T00:38:47.780Z,99.90
2019-02-20T00:41:20.869Z,99.90
2019-02-20T00:44:05.524Z,99.90
2019-02-20T00:46:37.252Z,99.90
2019-02-20T00:49:08.988Z,99.90
2019-02-20T00:51:43.672Z,99.90
2019-02-20T00:54:15.740Z,99.90
2019-02-20T00:56:45.837Z,99.90
2019-02-20T00:59:16.976Z,99.90
2019-02-20T01:01:51.800Z,99.90
2019-02-20T01:04:22.884Z,99.90
2019-02-20T01:06:53.004Z,99.90
2019-02-20T01:09:23.124Z,99.90
2019-02-20T01:11:55.320Z,99.90
2019-02-20T01:14:32.340Z,99.90
2019-02-20T01:17:02.770Z,99.90
2019-02-20T01:19:33.944Z,99.90
2019-02-20T01:22:04.992Z,99.90
2019-02-20T01:24:35.117Z,99.90
2019-02-20T01:27:05.227Z,99.90
2019-02-20T01:29:36.265Z,99.90
2019-02-20T01:32:06.364Z,99.90
2019-02-20T01:34:36.448Z,99.90
2019-02-20T01:37:12.445Z,99.90
2019-02-20T01:39:49.534Z,99.90
2019-02-20T01:42:21.268Z,99.90
2019-02-20T01:44:52.368Z,99.90
2019-02-20T01:47:22.456Z,99.90
2019-02-20T01:49:54.500Z,99.90
2019-02-20T01:52:24.593Z,99.90
2019-02-20T01:54:55.676Z,99.90
2019-02-20T01:57:36.028Z,99.90
2019-02-20T02:00:11.761Z,99.90
2019-02-20T02:02:50.096Z,99.90
2019-02-20T02:05:20.224Z,99.90
2019-02-20T02:07:50.317Z,99.90
2019-02-20T02:10:22.376Z,99.90
2019-02-20T02:12:52.492Z,99.90
2019-02-20T02:15:26.722Z,99.90
2019-02-20T02:17:58.792Z,99.90
2019-02-20T02:20:29.878Z,99.90
2019-02-20T02:22:59.989Z,99.90
2019-02-20T02:25:30.109Z,99.90
2019-02-20T02:28:11.124Z,99.90
2019-02-20T02:30:41.254Z,99.90
2019-02-20T02:33:11.336Z,99.90
2019-02-20T02:35:41.441Z,99.90
2019-02-20T02:38:13.449Z,99.90
2019-02-20T02:40:43.545Z,99.90
2019-02-20T02:43:13.641Z,99.90
2019-02-20T02:45:44.919Z,99.90
2019-02-20T02:48:15.968Z,99.90
2019-02-20T02:50:46.053Z,99.90
2019-02-20T02:53:18.310Z,99.90
2019-02-20T02:55:51.026Z,99.90
2019-02-20T02:58:24.532Z,99.90
2019-02-20T03:00:54.628Z,99.90
2019-02-20T03:03:24.745Z,99.90
2019-02-20T03:05:54.838Z,99.90
2019-02-20T03:08:24.940Z,99.90
2019-02-20T03:10:55.045Z,99.90
2019-02-20T03:13:34.980Z,99.90
2019-02-20T03:16:06.040Z,99.90
2019-02-20T03:18:36.164Z,99.90
2019-02-20T03:21:06.260Z,99.90
2019-02-20T03:23:46.326Z,99.90
2019-02-20T03:26:16.424Z,99.90
2019-02-20T03:28:46.524Z,99.90
2019-02-20T03:31:16.614Z,99.90
2019-02-20T03:33:48.751Z,99.90
2019-02-20T03:36:21.813Z,99.90
2019-02-20T03:38:59.756Z,99.90
2019-02-20T03:41:35.669Z,99.90
2019-02-20T03:44:05.776Z,99.90
2019-02-20T03:46:35.894Z,99.90
2019-02-20T03:49:06.002Z,99.90
2019-02-20T03:51:39.283Z,99.90
2019-02-20T03:54:09.369Z,99.90
2019-02-20T03:56:39.466Z,99.90
2019-02-20T03:59:10.572Z,99.90
2019-02-20T04:01:40.673Z,99.90
2019-02-20T04:04:10.772Z,99.90
2019-02-20T04:06:41.800Z,99.90
2019-02-20T04:09:11.889Z,99.90
2019-02-20T04:11:42.001Z,99.90
2019-02-20T04:14:13.080Z,99.90
2019-02-20T04:16:43.179Z,99.90
2019-02-20T04:19:19.144Z,99.90
2019-02-20T04:21:49.241Z,99.90
2019-02-20T04:24:20.320Z,99.90
2019-02-20T04:26:50.419Z,99.90
2019-02-20T04:29:20.548Z,99.90
2019-02-20T04:31:51.841Z,99.90
2019-02-20T04:34:21.940Z,99.90
2019-02-20T04:37:04.120Z,99.90
2019-02-20T04:39:34.254Z,99.90
2019-02-20T04:42:04.637Z,99.90
2019-02-20T04:44:37.720Z,99.90
2019-02-20T04:47:07.818Z,99.90
2019-02-20T04:49:37.925Z,99.90
2019-02-20T04:52:09.942Z,99.90
2019-02-20T04:54:44.017Z,99.90
2019-02-20T04:57:20.906Z,99.90
2019-02-20T04:59:51.945Z,99.90
2019-02-20T05:02:22.048Z,99.90
2019-02-20T05:04:54.129Z,99.90
2019-02-20T05:07:28.262Z,99.90
2019-02-20T05:09:59.196Z,99.90
2019-02-20T05:12:35.987Z,99.90
2019-02-20T05:15:08.102Z,99.90
2019-02-20T05:17:40.177Z,99.90
2019-02-20T05:20:10.345Z,99.90
2019-02-20T05:22:41.337Z,99.90
2019-02-20T05:25:14.553Z,99.90
2019-02-20T05:27:44.661Z,99.90
2019-02-20T05:30:15.702Z,99.90
2019-02-20T05:32:45.789Z,99.90
2019-02-20T05:35:15.905Z,99.90
2019-02-20T05:37:47.007Z,99.90
2019-02-20T05:40:17.122Z,99.90
2019-02-20T05:42:53.149Z,99.90
2019-02-20T05:45:23.258Z,99.90
2019-02-20T05:47:59.121Z,99.90
2019-02-20T05:50:29.231Z,99.90
2019-02-20T05:53:01.850Z,99.90
2019-02-20T05:55:33.613Z,99.90
2019-02-20T05:58:03.692Z,99.90
2019-02-20T06:00:35.749Z,99.90
2019-02-20T06:03:09.045Z,99.90
2019-02-20T06:05:40.093Z,99.90
2019-02-20T06:08:10.237Z,99.90
2019-02-20T06:10:40.369Z,99.90
2019-02-20T06:13:14.191Z,99.90
2019-02-20T06:15:51.001Z,99.90
2019-02-20T06:18:21.135Z,99.90
2019-02-20T06:21:00.055Z,99.90
2019-02-20T06:23:35.232Z,99.90
2019-02-20T06:26:05.413Z,99.90
2019-02-20T06:28:42.501Z,99.90
2019-02-20T06:31:15.921Z,99.90
2019-02-20T06:33:46.006Z,99.90
2019-02-20T06:36:16.102Z,99.90
2019-02-20T06:38:55.157Z,99.90
2019-02-20T06:41:26.217Z,99.90
2019-02-20T06:43:56.313Z,99.90
2019-02-20T06:46:39.478Z,99.90
2019-02-20T06:49:09.585Z,99.90
2019-02-20T06:51:42.387Z,99.90
2019-02-20T06:54:14.637Z,99.90
2019-02-20T06:56:47.913Z,99.90
2019-02-20T06:59:18.069Z,99.90
2019-02-20T07:01:51.214Z,99.90
2019-02-20T07:04:21.292Z,99.90
2019-02-20T07:07:17.149Z,99.90
2019-02-20T07:10:17.389Z,99.90
2019-02-20T07:12:54.836Z,99.90
2019-02-20T07:15:45.863Z,99.90
2019-02-20T07:18:29.549Z,99.90
2019-02-20T07:21:12.781Z,99.90
2019-02-20T07:23:56.497Z,99.90
2019-02-20T07:26:59.341Z,99.90
2019-02-20T07:29:59.095Z,99.90
2019-02-20T07:32:29.513Z,99.90
2019-02-20T07:35:00.545Z,99.90
2019-02-20T07:37:32.537Z,99.90
2019-02-20T07:40:04.776Z,99.90
2019-02-20T07:42:40.649Z,99.90
2019-02-20T07:45:11.491Z,99.90
2019-02-20T07:47:41.619Z,99.90
2019-02-20T07:50:17.430Z,99.90
2019-02-20T07:52:47.521Z,99.90
2019-02-20T07:55:18.677Z,99.90
2019-02-20T07:57:48.765Z,99.90
2019-02-20T08:00:18.825Z,99.90
2019-02-20T08:02:48.913Z,99.90
2019-02-20T08:05:19.977Z,99.90
2019-02-20T08:07:51.041Z,99.90
2019-02-20T08:10:21.127Z,99.90
2019-02-20T08:12:51.232Z,99.90
2019-02-20T08:15:22.313Z,99.90
2019-02-20T08:17:52.385Z,99.90
2019-02-20T08:20:22.493Z,99.90
2019-02-20T08:22:52.584Z,99.90
2019-02-20T08:25:23.279Z,99.90
2019-02-20T08:27:53.447Z,99.90
2019-02-20T08:30:23.547Z,99.90
2019-02-20T08:32:53.645Z,99.90
2019-02-20T08:35:23.725Z,99.90
2019-02-20T08:37:53.853Z,99.90
2019-02-20T08:40:23.966Z,99.90
2019-02-20T08:42:54.065Z,99.90
2019-02-20T08:45:25.165Z,99.90
2019-02-20T08:47:55.252Z,99.90
2019-02-20T08:50:25.345Z,99.90
2019-02-20T08:52:57.553Z,99.90
2019-02-20T08:55:31.956Z,99.90
2019-02-20T08:58:00.466Z,99.90
2019-02-20T09:00:31.225Z,99.90
2019-02-20T09:03:02.229Z,99.90
2019-02-20T09:05:36.931Z,99.90
2019-02-20T09:08:07.901Z,99.90
2019-02-20T09:10:38.917Z,99.90
2019-02-20T09:13:09.897Z,99.90
2019-02-20T09:15:39.985Z,99.90
2019-02-20T09:18:10.082Z,99.90
2019-02-20T09:20:40.177Z,99.90
2019-02-20T09:23:10.269Z,99.90
2019-02-20T09:25:41.783Z,99.90
2019-02-20T09:28:15.090Z,99.90
2019-02-20T09:30:46.142Z,99.90
2019-02-20T09:33:17.173Z,99.90
2019-02-20T09:35:47.297Z,99.90
2019-02-20T09:38:27.145Z,99.90
2019-02-20T09:40:57.265Z,99.90
2019-02-20T09:43:27.354Z,98.50
2019-02-20T09:45:58.418Z,89.30
2019-02-20T09:48:28.566Z,89.80
2019-02-20T09:50:58.633Z,74.10
2019-02-20T09:53:29.705Z,57.90
2019-02-20T09:56:00.719Z,53.20
2019-02-20T09:58:32.809Z,53.90
2019-02-20T10:01:03.148Z,54.70
2019-02-20T10:03:34.605Z,54.90
2019-02-20T10:06:05.694Z,53.30
2019-02-20T10:08:35.797Z,52.10
2019-02-20T10:11:05.913Z,50.20
2019-02-20T10:13:37.063Z,52.30
2019-02-20T10:16:08.168Z,52.70
2019-02-20T10:18:39.145Z,54.30
2019-02-20T10:21:09.259Z,55.20
2019-02-20T10:23:45.332Z,54.90
2019-02-20T10:26:16.521Z,55.30
2019-02-20T10:28:46.618Z,55.40
2019-02-20T10:31:18.707Z,54.60
2019-02-20T10:33:48.821Z,54.80
2019-02-20T10:36:18.915Z,55.80
2019-02-20T10:38:49.057Z,55.60
2019-02-20T10:41:19.189Z,54.30
2019-02-20T10:43:50.218Z,54.50
2019-02-20T10:46:20.346Z,54.70
2019-02-20T10:48:50.433Z,53.80
2019-02-20T10:51:22.533Z,53.80
2019-02-20T10:53:52.617Z,53.10
2019-02-20T10:56:22.707Z,51.70
2019-02-20T10:59:02.810Z,52.70
2019-02-20T11:01:34.850Z,52.80
2019-02-20T11:04:08.369Z,52.60
2019-02-20T11:06:38.482Z,51.80
2019-02-20T11:09:08.575Z,51.20
2019-02-20T11:11:38.682Z,52.00
2019-02-20T11:14:08.969Z,53.50
2019-02-20T11:16:41.014Z,53.40
2019-02-20T11:19:13.040Z,53.10
2019-02-20T11:21:46.137Z,53.20
2019-02-20T11:24:17.932Z,50.50
2019-02-20T11:26:56.829Z,48.90
2019-02-20T11:29:26.947Z,48.40
2019-02-20T11:31:58.545Z,48.00
2019-02-20T11:34:36.554Z,48.40
2019-02-20T11:37:08.536Z,46.70
2019-02-20T11:39:43.642Z,45.00
2019-02-20T11:42:13.986Z,44.80
2019-02-20T11:44:56.567Z,44.10
2019-02-20T11:47:27.566Z,42.60
2019-02-20T11:50:09.253Z,41.80
2019-02-20T11:52:42.519Z,43.80
2019-02-20T11:55:14.825Z,43.20
2019-02-20T11:57:44.913Z,41.90
2019-02-20T12:00:18.494Z,40.70
2019-02-20T12:02:52.302Z,40.10
2019-02-20T12:05:22.429Z,39.30
2019-02-20T12:07:52.606Z,38.80
2019-02-20T12:10:22.802Z,37.40
2019-02-20T12:12:54.791Z,39.00
2019-02-20T12:15:24.969Z,38.10
2019-02-20T12:17:55.022Z,36.30
2019-02-20T12:20:27.012Z,36.90
2019-02-20T12:22:57.238Z,37.20
2019-02-20T12:25:27.328Z,39.30
2019-02-20T12:27:58.446Z,39.60
2019-02-20T12:30:28.534Z,38.10
2019-02-20T12:32:59.602Z,36.60
2019-02-20T12:35:30.670Z,37.70
2019-02-20T12:38:02.516Z,38.40
2019-02-20T12:40:36.770Z,39.60
2019-02-20T12:43:07.192Z,39.50
2019-02-20T12:45:37.274Z,39.60
2019-02-20T12:48:07.378Z,39.90
2019-02-20T12:50:37.570Z,40.30
2019-02-20T12:53:07.929Z,41.20
2019-02-20T12:55:42.040Z,42.70
2019-02-20T12:58:12.243Z,43.90
2019-02-20T13:00:43.712Z,44.40
2019-02-20T13:03:25.918Z,45.10
2019-02-20T13:05:58.018Z,44.90
2019-02-20T13:08:36.546Z,45.30
2019-02-20T13:11:06.798Z,45.40
2019-02-20T13:13:41.262Z,46.70
2019-02-20T13:16:12.278Z,47.80
2019-02-20T13:18:42.411Z,48.70
2019-02-20T13:21:27.519Z,49.20
2019-02-20T13:23:57.622Z,50.10
2019-02-20T13:26:27.710Z,51.00
2019-02-20T13:28:57.827Z,50.70
2019-02-20T13:31:33.942Z,51.50
2019-02-20T13:34:05.327Z,51.00
2019-02-20T13:36:36.375Z,51.60
2019-02-20T13:39:06.834Z,51.90
2019-02-20T13:41:37.846Z,52.10
2019-02-20T13:44:07.922Z,52.90
2019-02-20T13:46:41.151Z,53.50
2019-02-20T13:49:18.234Z,54.00
2019-02-20T13:51:48.379Z,54.80
2019-02-20T13:54:19.398Z,55.10
2019-02-20T13:56:50.494Z,55.50
2019-02-20T13:59:20.606Z,56.90
2019-02-20T14:01:51.615Z,57.80
2019-02-20T14:04:21.702Z,58.90
2019-02-20T14:06:54.454Z,60.00
2019-02-20T14:09:24.556Z,59.80
2019-02-20T14:11:55.655Z,58.90
2019-02-20T14:14:26.697Z,59.00
2019-02-20T14:17:00.714Z,58.40
2019-02-20T14:19:30.812Z,58.90
2019-02-20T14:22:00.908Z,59.20
2019-02-20T14:24:30.995Z,58.80
2019-02-20T14:27:01.116Z,60.50
2019-02-20T14:29:31.200Z,60.70
2019-02-20T14:32:02.215Z,61.50
2019-02-20T14:34:32.306Z,61.40
2019-02-20T14:37:02.951Z,60.70
2019-02-20T14:39:36.074Z,61.20
2019-02-20T14:42:07.050Z,60.80
2019-02-20T14:44:40.183Z,60.90
2019-02-20T14:47:16.199Z,60.40
2019-02-20T14:49:46.308Z,60.90
2019-02-20T14:52:18.637Z,60.70
2019-02-20T14:54:50.537Z,61.30
2019-02-20T14:57:20.651Z,60.30
2019-02-20T14:59:50.735Z,61.20
2019-02-20T15:02:20.860Z,60.90
2019-02-20T15:04:56.663Z,60.00
2019-02-20T15:07:28.655Z,58.30
2019-02-20T15:09:59.921Z,57.30
2019-02-20T15:12:37.087Z,57.30
2019-02-20T15:15:15.053Z,57.50
2019-02-20T15:17:45.153Z,57.40
2019-02-20T15:20:18.614Z,56.70
2019-02-20T15:22:49.660Z,56.50
2019-02-20T15:25:25.619Z,56.90
2019-02-20T15:27:55.786Z,56.20
2019-02-20T15:30:27.831Z,55.80
2019-02-20T15:32:59.186Z,54.70
2019-02-20T15:35:29.279Z,55.10
2019-02-20T15:37:59.359Z,54.60
2019-02-20T15:40:29.438Z,54.90
2019-02-20T15:43:07.375Z,54.70
2019-02-20T15:45:38.345Z,55.50
2019-02-20T15:48:08.526Z,55.60
2019-02-20T15:50:41.519Z,54.90
2019-02-20T15:53:14.599Z,55.00
2019-02-20T15:55:51.923Z,55.50
2019-02-20T15:58:22.301Z,56.50
2019-02-20T16:00:58.499Z,57.40
2019-02-20T16:03:28.587Z,59.20
2019-02-20T16:05:58.686Z,60.40
2019-02-20T16:08:29.695Z,61.80
2019-02-20T16:11:04.183Z,63.30
2019-02-20T16:13:34.263Z,64.80
2019-02-20T16:16:05.285Z,66.20
2019-02-20T16:18:38.558Z,67.80
2019-02-20T16:21:13.939Z,68.80
2019-02-20T16:23:44.299Z,70.20
2019-02-20T16:26:17.486Z,73.10
2019-02-20T16:28:49.479Z,75.00
2019-02-20T16:31:22.775Z,78.30
2019-02-20T16:33:59.651Z,79.00
2019-02-20T16:36:34.667Z,80.40
2019-02-20T16:39:05.399Z,82.10
2019-02-20T16:41:36.472Z,84.60
2019-02-20T16:44:10.078Z,88.10
2019-02-20T16:46:42.282Z,90.60
2019-02-20T16:49:14.279Z,91.90
2019-02-20T16:51:47.499Z,93.10
2019-02-20T16:54:18.527Z,94.20
2019-02-20T16:56:49.502Z,95.30
2019-02-20T16:59:20.015Z,96.00
2019-02-20T17:01:50.111Z,96.80
2019-02-20T17:04:21.092Z,97.80
2019-02-20T17:06:53.119Z,99.30
2019-02-20T17:09:29.127Z,99.70
2019-02-20T17:12:02.171Z,99.90
2019-02-20T17:14:32.247Z,99.90
2019-02-20T17:17:02.907Z,99.90
2019-02-20T17:19:35.000Z,99.90
2019-02-20T17:22:05.235Z,99.90
2019-02-20T17:24:35.357Z,99.90
2019-02-20T17:27:05.723Z,99.90
2019-02-20T17:29:35.836Z,99.90
2019-02-20T17:32:06.884Z,99.90
2019-02-20T17:34:42.743Z,99.90
2019-02-20T17:37:13.199Z,99.90
2019-02-20T17:39:50.483Z,99.90
2019-02-20T17:42:26.251Z,99.90
2019-02-20T17:44:57.351Z,99.90
2019-02-20T17:47:29.342Z,99.90
2019-02-20T17:50:02.464Z,99.90
2019-02-20T17:52:32.532Z,99.90
2019-02-20T17:55:02.605Z,99.90
2019-02-20T17:57:33.668Z,99.90
2019-02-20T18:00:04.596Z,99.90
2019-02-20T18:02:35.247Z,99.90
2019-02-20T18:05:07.624Z,99.90
2019-02-20T18:07:37.709Z,99.90
2019-02-20T18:10:15.122Z,99.90
2019-02-20T18:12:45.244Z,99.90
2019-02-20T18:15:16.331Z,99.90
2019-02-20T18:17:47.875Z,99.90
2019-02-20T18:20:17.982Z,99.90
2019-02-20T18:22:48.076Z,99.90
2019-02-20T18:25:19.066Z,99.90
2019-02-20T18:27:49.147Z,99.90
2019-02-20T18:30:20.237Z,99.90
2019-02-20T18:33:01.263Z,99.90
2019-02-20T18:35:33.339Z,99.90
2019-02-20T18:38:03.447Z,99.90
2019-02-20T18:40:34.809Z,99.90
2019-02-20T18:43:04.844Z,99.90
2019-02-20T18:45:34.942Z,99.90
2019-02-20T18:48:05.116Z,99.90
2019-02-20T18:50:39.357Z,99.90
2019-02-20T18:53:09.460Z,99.90
2019-02-20T18:55:39.550Z,99.90
2019-02-20T18:58:09.636Z,99.90
2019-02-20T19:00:45.749Z,99.90
2019-02-20T19:03:15.831Z,99.90
2019-02-20T19:05:47.839Z,99.90
2019-02-20T19:08:44.923Z,99.90
2019-02-20T19:11:31.494Z,99.90
2019-02-20T19:14:20.991Z,99.90
2019-02-20T19:17:32.955Z,99.90
2019-02-20T19:20:26.160Z,99.90
2019-02-20T19:23:38.675Z,99.90
2019-02-20T19:26:19.368Z,99.90
2019-02-20T19:29:08.172Z,99.90
2019-02-20T19:31:58.017Z,99.90
2019-02-20T19:34:40.351Z,99.90
2019-02-20T19:37:20.136Z,99.90
2019-02-20T19:39:55.784Z,99.90
2019-02-20T19:43:05.947Z,99.90
2019-02-20T19:46:02.301Z,99.90
2019-02-20T19:49:00.552Z,99.90
2019-02-20T19:51:39.300Z,99.90
2019-02-20T19:54:21.037Z,99.90
2019-02-20T19:57:02.003Z,99.90
2019-02-20T20:00:00.255Z,99.90
2019-02-20T20:02:50.004Z,99.90
2019-02-20T20:05:36.386Z,99.90
2019-02-20T20:08:29.739Z,99.90
2019-02-20T20:11:44.699Z,99.90
2019-02-20T20:14:33.681Z,99.90
2019-02-20T20:17:36.792Z,99.90
2019-02-20T20:20:49.607Z,99.90
2019-02-20T20:23:58.655Z,99.90
2019-02-20T20:26:52.106Z,99.90
2019-02-20T20:30:12.512Z,99.90
2019-02-20T20:33:18.837Z,99.90
2019-02-20T20:36:20.205Z,99.90
2019-02-20T20:39:12.091Z,99.90
2019-02-20T20:42:14.536Z,99.90
2019-02-20T20:45:16.525Z,99.90
2019-02-20T20:48:11.566Z,99.90
2019-02-20T20:51:03.028Z,99.90
2019-02-20T20:53:59.016Z,99.90
2019-02-20T20:57:09.076Z,99.90
2019-02-20T20:59:58.752Z,99.90
2019-02-20T21:02:36.185Z,99.90
2019-02-20T21:05:25.736Z,99.90
2019-02-20T21:08:03.364Z,99.90
2019-02-20T21:11:23.396Z,99.90
2019-02-20T21:14:20.944Z,99.90
2019-02-20T21:17:21.511Z,99.90
2019-02-20T21:20:10.896Z,99.90
2019-02-20T21:23:28.064Z,99.90
2019-02-20T21:26:14.392Z,99.90
2019-02-20T21:29:27.836Z,99.90
2019-02-20T21:32:00.977Z,99.90
2019-02-20T21:35:11.575Z,99.90
2019-02-20T21:38:22.494Z,99.90
2019-02-20T21:41:00.970Z,99.90
2019-02-20T21:44:20.960Z,99.90
2019-02-20T21:47:24.362Z,99.90
2019-02-20T21:50:04.806Z,99.90
2019-02-20T21:52:57.212Z,99.90
2019-02-20T21:56:01.680Z,99.90
2019-02-20T21:59:09.297Z,99.90
2019-02-20T22:01:46.570Z,99.90
2019-02-20T22:04:46.713Z,99.90
2019-02-20T22:07:55.556Z,99.90
2019-02-20T22:11:09.521Z,99.90
2019-02-20T22:14:06.692Z,99.90
2019-02-20T22:16:55.301Z,99.90
2019-02-20T22:19:54.001Z,99.90
2019-02-20T22:22:59.016Z,99.90
2019-02-20T22:25:54.736Z,99.90
2019-02-20T22:28:38.089Z,99.90
2019-02-20T22:31:29.355Z,99.90
2019-02-20T22:34:19.944Z,99.90
2019-02-20T22:37:08.989Z,99.90
2019-02-20T22:40:18.476Z,99.90
2019-02-20T22:43:14.210Z,99.90
2019-02-20T22:46:04.816Z,99.90
2019-02-20T22:48:48.265Z,99.90
2019-02-20T22:51:52.815Z,99.90
2019-02-20T22:55:17.833Z,99.90
2019-02-20T22:57:53.524Z,99.90
2019-02-20T23:01:07.372Z,99.90
2019-02-20T23:04:02.366Z,99.90
2019-02-20T23:06:51.507Z,99.90
2019-02-20T23:09:43.433Z,99.90
2019-02-20T23:12:36.762Z,99.90
2019-02-20T23:15:07.486Z,99.90
2019-02-20T23:17:39.465Z,99.90
2019-02-20T23:20:11.519Z,99.90
2019-02-20T23:22:43.609Z,99.90
2019-02-20T23:25:13.702Z,99.90
2019-02-20T23:27:44.673Z,99.90
2019-02-20T23:30:16.841Z,99.90
2019-02-20T23:32:46.924Z,99.90
2019-02-20T23:35:18.046Z,99.90
2019-02-20T23:37:48.104Z,99.90
2019-02-20T23:40:19.125Z,99.90
2019-02-20T23:42:49.339Z,99.90
2019-02-20T23:45:19.389Z,99.90
2019-02-20T23:47:49.545Z,99.90
2019-02-20T23:50:19.650Z,99.90
2019-02-20T23:52:50.677Z,99.90
2019-02-20T23:55:20.775Z,99.90
2019-02-20T23:57:53.565Z,99.90
